Time;durP1;ratioP1;P1;durP2;ratioP2;P2;SDS_P1;SDS_P2;PMS_P1;PMS_P2;Temp;Humidity;BMP_temperature;BMP_pressure;BME280_temperature;BME280_humidity;BME280_pressure;Samples;Min_cycle;Max_cycle;Signal;HPM_P1;HPM_P2
2022/07/11 00:02:15;;;;;;;;;4.00;4.00;;;;;23.71;44.69;102025.75;5072306;28;46775;-57
2022/07/11 00:04:46;;;;;;;;;4.00;3.75;;;;;23.70;44.63;102025.88;5070102;28;45299;-57
2022/07/11 00:07:12;;;;;;;;;7.25;4.00;;;;;23.65;44.20;102019.13;5072798;28;45566;-57
2022/07/11 00:09:38;;;;;;;;;2.00;2.00;;;;;23.61;44.38;102020.38;5072071;27;45409;-57
2022/07/11 00:12:04;;;;;;;;;2.00;2.00;;;;;23.59;44.78;102021.50;5071344;28;46278;-55
2022/07/11 00:14:30;;;;;;;;;5.00;3.50;;;;;23.56;44.63;102009.19;5071759;28;45326;-57
2022/07/11 00:16:55;;;;;;;;;2.75;1.75;;;;;23.55;44.90;102018.25;5073050;28;45406;-57
2022/07/11 00:19:21;;;;;;;;;3.75;3.50;;;;;23.54;44.61;102021.06;5073521;28;45228;-57
2022/07/11 00:21:47;;;;;;;;;3.00;3.00;;;;;23.53;44.69;102011.31;5071926;28;45563;-58
2022/07/11 00:24:14;;;;;;;;;3.00;3.00;;;;;23.52;44.71;102023.91;5071068;28;45444;-58
2022/07/11 00:26:39;;;;;;;;;3.00;3.00;;;;;23.50;44.82;102025.91;5072986;28;45290;-57
2022/07/11 00:29:05;;;;;;;;;3.00;3.00;;;;;23.49;44.94;102026.91;5072402;27;45648;-57
2022/07/11 00:31:31;;;;;;;;;3.00;3.00;;;;;23.49;44.44;102017.97;5071972;28;45401;-57
2022/07/11 00:33:57;;;;;;;;;3.75;3.00;;;;;23.48;44.92;102024.38;5070341;28;45387;-58
2022/07/11 00:36:23;;;;;;;;;2.75;2.75;;;;;23.45;44.95;102020.09;5072461;28;45240;-57
2022/07/11 00:38:49;;;;;;;;;4.00;2.75;;;;;23.43;44.58;102023.94;5071681;27;45165;-58
2022/07/11 00:41:14;;;;;;;;;4.25;4.00;;;;;23.43;44.53;102024.78;5070223;28;45350;-58
2022/07/11 00:43:41;;;;;;;;;2.00;2.00;;;;;23.43;44.92;102018.56;5072667;28;45258;-56
2022/07/11 00:46:08;;;;;;;;;4.00;4.00;;;;;23.42;45.19;102011.47;5074505;28;45493;-56
2022/07/11 00:48:35;;;;;;;;;2.00;2.00;;;;;23.38;44.63;102017.16;5070985;28;45554;-55
2022/07/11 00:51:03;;;;;;;;;2.00;2.00;;;;;23.37;45.20;102004.69;5072545;28;46090;-55
2022/07/11 00:53:34;;;;;;;;;8.00;5.00;;;;;23.36;44.83;102013.75;5070436;28;45425;-58
2022/07/11 00:56:00;;;;;;;;;3.25;3.25;;;;;23.33;45.17;102007.81;5070106;28;45451;-55
2022/07/11 00:58:26;;;;;;;;;3.00;3.00;;;;;23.32;45.13;101998.06;5071242;28;45227;-56
2022/07/11 01:00:53;;;;;;;;;3.00;3.00;;;;;23.31;45.28;101996.34;5071458;28;45156;-56
2022/07/11 01:03:18;;;;;;;;;2.50;2.50;;;;;23.27;45.59;102000.31;5070037;28;45172;-56
2022/07/11 01:05:44;;;;;;;;;3.25;3.25;;;;;23.26;45.06;101999.47;5071607;28;46400;-54
2022/07/11 01:08:10;;;;;;;;;2.00;2.00;;;;;23.25;45.35;102005.00;5071528;28;45318;-56
2022/07/11 01:10:35;;;;;;;;;3.50;1.25;;;;;23.22;45.13;102005.25;5069524;27;45487;-55
2022/07/11 01:13:01;;;;;;;;;3.25;3.25;;;;;23.19;45.18;102005.56;5071781;28;45855;-56
2022/07/11 01:15:27;;;;;;;;;5.00;4.00;;;;;23.13;45.01;102005.13;5071147;28;45328;-55
2022/07/11 01:17:52;;;;;;;;;3.00;3.00;;;;;23.11;45.26;102008.94;5070125;28;45414;-55
2022/07/11 01:20:24;;;;;;;;;0.00;0.00;;;;;23.10;45.59;102008.09;5071082;28;45388;-56
2022/07/11 01:22:56;;;;;;;;;5.00;3.00;;;;;23.08;45.23;102002.03;5069643;28;45386;-56
2022/07/11 01:25:31;;;;;;;;;5.25;3.25;;;;;23.04;45.30;101995.22;5068326;28;45940;-56
2022/07/11 01:28:03;;;;;;;;;2.00;2.00;;;;;22.99;45.73;101994.81;5068575;28;45434;-55
2022/07/11 01:30:31;;;;;;;;;3.50;2.75;;;;;22.97;45.33;102002.16;5070412;28;46450;-55
2022/07/11 01:32:57;;;;;;;;;4.25;2.25;;;;;22.88;45.78;102004.84;5071235;28;45246;-55
2022/07/11 01:35:23;;;;;;;;;1.00;1.00;;;;;22.82;45.57;102004.38;5073291;28;45398;-55
2022/07/11 01:37:49;;;;;;;;;4.00;3.25;;;;;22.80;45.64;102008.19;5069844;28;45215;-55
2022/07/11 01:40:15;;;;;;;;;4.25;3.00;;;;;22.77;45.99;102009.31;5072728;28;45201;-57
2022/07/11 01:42:41;;;;;;;;;3.50;3.00;;;;;22.75;45.88;102000.56;5069701;28;45678;-58
2022/07/11 01:45:08;;;;;;;;;3.00;3.00;;;;;22.73;46.36;102012.41;5070057;28;45322;-58
2022/07/11 01:47:33;;;;;;;;;6.00;3.00;;;;;22.72;45.81;102005.34;5069645;28;45569;-57
2022/07/11 01:49:59;;;;;;;;;3.00;3.00;;;;;22.69;46.25;102001.13;5069551;27;45915;-56
2022/07/11 01:52:24;;;;;;;;;2.00;2.00;;;;;22.65;46.21;101994.31;5069338;28;45304;-56
2022/07/11 01:54:50;;;;;;;;;3.00;3.00;;;;;22.65;45.93;102001.53;5070195;28;45695;-55
2022/07/11 01:57:15;;;;;;;;;4.75;4.75;;;;;22.64;46.11;102003.34;5066738;28;45400;-57
2022/07/11 01:59:42;;;;;;;;;3.75;2.25;;;;;22.62;45.99;101986.53;5069836;28;45459;-57
2022/07/11 02:02:07;;;;;;;;;2.75;2.00;;;;;22.60;46.20;101987.69;5069665;28;45436;-53
2022/07/11 02:04:33;;;;;;;;;4.50;3.75;;;;;22.55;46.51;101993.44;5070545;28;45496;-54
2022/07/11 02:06:59;;;;;;;;;3.75;3.75;;;;;22.51;46.53;102000.06;5069206;28;45425;-55
2022/07/11 02:09:24;;;;;;;;;3.75;3.75;;;;;22.50;46.35;102003.75;5069109;28;45547;-57
2022/07/11 02:11:50;;;;;;;;;3.00;3.00;;;;;22.48;46.77;102003.88;5070115;28;45461;-58
2022/07/11 02:14:15;;;;;;;;;2.00;1.00;;;;;22.46;46.50;102003.19;5071686;28;45421;-57
2022/07/11 02:16:41;;;;;;;;;2.00;2.00;;;;;22.44;46.60;102007.84;5069039;28;45543;-57
2022/07/11 02:19:07;;;;;;;;;3.00;3.00;;;;;22.42;46.86;102007.13;5073954;27;46193;-57
2022/07/11 02:21:33;;;;;;;;;5.00;4.00;;;;;22.40;46.86;102006.41;5069489;28;45696;-57
2022/07/11 02:23:59;;;;;;;;;2.00;2.00;;;;;22.36;46.92;102005.00;5077755;27;45408;-58
2022/07/11 02:26:24;;;;;;;;;3.00;3.00;;;;;22.34;47.18;102001.59;5065334;28;45321;-58
2022/07/11 02:28:50;;;;;;;;;3.25;2.50;;;;;22.32;46.97;101995.50;5070544;28;46251;-57
2022/07/11 02:31:15;;;;;;;;;3.75;3.00;;;;;22.32;46.74;101997.34;5070714;28;45351;-57
2022/07/11 02:33:41;;;;;;;;;2.00;2.00;;;;;22.26;46.97;102002.25;5062908;28;45319;-57
2022/07/11 02:36:07;;;;;;;;;3.00;3.00;;;;;22.22;47.30;102000.84;5074471;28;45342;-57
2022/07/11 02:38:33;;;;;;;;;2.75;2.75;;;;;22.16;47.11;101997.84;5060718;28;45267;-57
2022/07/11 02:40:59;;;;;;;;;4.00;2.00;;;;;22.09;47.35;102000.22;5060229;28;45254;-57
2022/07/11 02:43:25;;;;;;;;;3.00;3.00;;;;;22.06;47.50;101997.78;5060753;27;45394;-57
2022/07/11 02:45:51;;;;;;;;;3.00;3.00;;;;;22.04;47.58;102002.47;5074243;28;45393;-57
2022/07/11 02:48:16;;;;;;;;;3.00;3.00;;;;;22.01;47.25;101997.34;5060116;28;45882;-57
2022/07/11 02:50:42;;;;;;;;;7.75;4.00;;;;;21.97;47.46;102003.97;5060578;28;45365;-57
2022/07/11 02:53:07;;;;;;;;;4.00;3.00;;;;;21.95;47.68;102003.22;5060664;28;45505;-58
2022/07/11 02:55:33;;;;;;;;;4.75;4.00;;;;;21.94;47.65;101997.03;5060297;28;45439;-56
2022/07/11 02:57:59;;;;;;;;;5.50;5.25;;;;;21.92;47.62;101993.63;5060507;28;45395;-57
2022/07/11 03:00:24;;;;;;;;;5.75;5.75;;;;;21.92;47.79;101993.63;5073686;28;45260;-57
2022/07/11 03:02:50;;;;;;;;;8.75;8.00;;;;;21.91;47.64;101989.25;5060206;28;45263;-56
2022/07/11 03:05:15;;;;;;;;;8.25;8.25;;;;;21.94;47.93;101993.50;5060237;28;45257;-56
2022/07/11 03:07:41;;;;;;;;;9.00;7.75;;;;;21.95;48.07;101989.81;5060288;28;45381;-56
2022/07/11 03:10:06;;;;;;;;;12.75;9.75;;;;;21.95;47.96;101987.97;5060939;28;45330;-57
2022/07/11 03:12:32;;;;;;;;;10.75;10.00;;;;;21.96;48.18;101980.78;5087738;27;45276;-56
2022/07/11 03:14:58;;;;;;;;;8.50;8.00;;;;;21.95;48.06;101987.97;5087975;27;45205;-56
2022/07/11 03:17:23;;;;;;;;;13.25;9.50;;;;;21.94;47.94;101985.44;5083466;27;45403;-57
2022/07/11 03:19:49;;;;;;;;;8.75;7.25;;;;;21.93;48.24;101984.59;5078892;28;45296;-56
2022/07/11 03:22:16;;;;;;;;;7.00;7.00;;;;;21.93;48.01;101989.13;5076636;28;45215;-57
2022/07/11 03:24:42;;;;;;;;;8.50;6.50;;;;;21.91;48.18;101991.94;5063361;28;45508;-57
2022/07/11 03:27:08;;;;;;;;;7.75;6.75;;;;;21.88;48.23;101992.22;5063224;28;46187;-57
2022/07/11 03:29:34;;;;;;;;;8.00;8.00;;;;;21.87;48.51;101990.50;5078804;28;45326;-56
2022/07/11 03:32:00;;;;;;;;;9.75;7.25;;;;;21.87;48.46;101997.69;5063549;28;45281;-56
2022/07/11 03:34:25;;;;;;;;;6.25;6.25;;;;;21.84;48.39;101992.59;5078187;28;45312;-56
2022/07/11 03:36:51;;;;;;;;;6.75;6.50;;;;;21.82;48.08;101995.44;5075525;28;45360;-57
2022/07/11 03:39:16;;;;;;;;;5.25;5.25;;;;;21.81;48.49;101998.25;5063134;28;45225;-57
2022/07/11 03:41:42;;;;;;;;;6.00;4.25;;;;;21.77;48.56;101994.97;5063472;28;45338;-56
2022/07/11 03:44:08;;;;;;;;;5.00;5.00;;;;;21.76;48.46;101995.94;5092110;27;45536;-56
2022/07/11 03:46:34;;;;;;;;;8.00;5.75;;;;;21.77;48.46;101988.75;5083255;28;45317;-56
2022/07/11 03:48:59;;;;;;;;;9.00;7.00;;;;;21.74;48.57;101997.94;5067922;28;45202;-57
2022/07/11 03:51:24;;;;;;;;;8.50;6.75;;;;;21.72;48.65;101989.13;5063173;28;45306;-57
2022/07/11 03:53:50;;;;;;;;;7.75;6.25;;;;;21.69;48.58;101989.41;5063038;28;45165;-57
2022/07/11 03:56:22;;;;;;;;;6.00;5.00;;;;;21.69;48.77;101997.47;5062943;28;45395;-57
2022/07/11 03:58:51;;;;;;;;;8.75;7.75;;;;;21.68;48.82;101996.63;5066996;27;45302;-57
2022/07/11 04:01:17;;;;;;;;;7.00;6.00;;;;;21.64;48.77;101988.94;5094220;27;45375;-57
2022/07/11 04:03:42;;;;;;;;;6.25;6.25;;;;;21.59;48.90;101992.03;5071744;27;45513;-57
2022/07/11 04:06:08;;;;;;;;;9.25;6.50;;;;;21.54;48.97;101994.25;5094042;27;45389;-57
2022/07/11 04:08:33;;;;;;;;;9.00;7.00;;;;;21.51;49.02;101989.19;5080187;27;45302;-57
2022/07/11 04:10:59;;;;;;;;;7.00;6.75;;;;;21.51;48.99;101986.50;5070770;28;45395;-57
2022/07/11 04:13:25;;;;;;;;;7.00;6.75;;;;;21.51;48.94;101986.50;5068295;28;45457;-57
2022/07/11 04:15:50;;;;;;;;;6.75;6.75;;;;;21.49;49.12;101987.59;5062543;28;45441;-57
2022/07/11 04:18:17;;;;;;;;;6.75;5.25;;;;;21.53;49.16;101992.56;5075587;28;45325;-57
2022/07/11 04:20:42;;;;;;;;;0.00;0.00;;;;;21.52;49.14;101990.88;5079785;27;45420;-55
2022/07/11 04:23:07;;;;;;;;;9.00;7.75;;;;;21.50;49.46;101989.31;5096324;27;45213;-57
2022/07/11 04:25:34;;;;;;;;;8.50;7.50;;;;;21.48;49.30;101992.09;5074012;28;45453;-57
2022/07/11 04:28:00;;;;;;;;;8.00;8.00;;;;;21.49;49.49;101999.19;5076050;28;45253;-57
2022/07/11 04:30:25;;;;;;;;;5.75;5.25;;;;;21.50;49.51;101987.47;5062768;28;45381;-57
2022/07/11 04:32:50;;;;;;;;;10.25;6.25;;;;;21.51;49.49;101996.38;5063665;28;45259;-56
2022/07/11 04:35:17;;;;;;;;;8.25;5.25;;;;;21.49;49.57;102004.56;5074687;28;46018;-57
2022/07/11 04:37:43;;;;;;;;;5.75;5.75;;;;;21.50;49.76;102008.94;5062312;28;45498;-57
2022/07/11 04:40:09;;;;;;;;;4.25;0.75;;;;;21.53;49.53;102015.84;5062191;28;45363;-57
2022/07/11 04:42:34;;;;;;;;;7.75;5.25;;;;;21.55;49.53;102020.09;5075826;28;45355;-57
2022/07/11 04:45:00;;;;;;;;;4.25;4.25;;;;;21.57;49.66;102017.31;5062113;28;46195;-57
2022/07/11 04:47:25;;;;;;;;;4.75;4.25;;;;;21.60;49.57;102017.88;5062972;28;45321;-57
2022/07/11 04:49:51;;;;;;;;;4.50;4.00;;;;;21.64;49.69;102013.09;5074797;28;45324;-57
2022/07/11 04:52:16;;;;;;;;;4.00;3.50;;;;;21.66;49.58;102014.69;5067437;28;45244;-57
2022/07/11 04:54:42;;;;;;;;;6.00;4.50;;;;;21.69;49.50;102011.72;5062069;28;46135;-57
2022/07/11 04:57:07;;;;;;;;;4.50;3.50;;;;;21.70;49.58;102016.09;5077729;27;45275;-56
2022/07/11 04:59:33;;;;;;;;;4.75;4.75;;;;;21.70;49.64;102029.50;5102892;27;45432;-57
2022/07/11 05:01:58;;;;;;;;;5.25;3.75;;;;;21.70;49.65;102016.09;5086147;27;45444;-57
2022/07/11 05:04:24;;;;;;;;;3.00;3.00;;;;;21.69;49.49;102014.41;5060127;28;45206;-56
2022/07/11 05:06:49;;;;;;;;;5.50;5.50;;;;;21.69;49.63;102024.28;5061695;28;45307;-57
2022/07/11 05:09:14;;;;;;;;;8.50;8.50;;;;;21.69;49.45;102021.59;5068609;27;45373;-57
2022/07/11 05:11:40;;;;;;;;;5.00;5.00;;;;;21.66;49.52;102019.19;5068636;28;45366;-57
2022/07/11 05:14:05;;;;;;;;;4.75;4.25;;;;;21.65;49.66;102023.72;5061585;27;46138;-57
2022/07/11 05:16:31;;;;;;;;;4.00;4.00;;;;;21.65;49.65;102030.91;5061539;28;45303;-57
2022/07/11 05:18:56;;;;;;;;;3.75;3.50;;;;;21.63;49.87;102030.16;5063382;28;45500;-58
2022/07/11 05:21:23;;;;;;;;;3.75;3.75;;;;;21.63;49.94;102033.69;5082013;27;45394;-57
2022/07/11 05:23:49;;;;;;;;;3.75;3.75;;;;;21.65;49.77;102034.44;5061261;28;46297;-56
2022/07/11 05:26:16;;;;;;;;;5.75;3.25;;;;;21.68;49.44;102036.84;5061728;27;45315;-57
2022/07/11 05:28:42;;;;;;;;;8.25;6.00;;;;;21.74;49.77;102033.63;5095158;27;45321;-57
2022/07/11 05:31:08;;;;;;;;;10.00;6.50;;;;;21.80;49.65;102037.59;5075881;28;45340;-57
2022/07/11 05:33:34;;;;;;;;;12.00;9.50;;;;;21.90;49.95;102037.69;5073936;28;46196;-57
2022/07/11 05:36:02;;;;;;;;;6.25;5.00;;;;;21.98;49.69;102044.09;5068900;28;45235;-57
2022/07/11 05:38:28;;;;;;;;;6.00;4.00;;;;;22.05;49.51;102048.91;5073094;28;45446;-57
2022/07/11 05:40:53;;;;;;;;;4.50;4.00;;;;;22.14;49.44;102043.63;5067920;28;45308;-57
2022/07/11 05:43:19;;;;;;;;;6.50;5.25;;;;;22.24;49.41;102043.66;5073926;28;45625;-56
2022/07/11 05:45:45;;;;;;;;;5.00;5.00;;;;;22.34;49.73;102041.84;5066555;28;45452;-55
2022/07/11 05:48:11;;;;;;;;;5.75;5.00;;;;;22.43;49.37;102035.66;5073701;27;45625;-57
2022/07/11 05:50:36;;;;;;;;;5.50;5.25;;;;;22.49;49.28;102031.59;5061212;28;45217;-53
2022/07/11 05:53:02;;;;;;;;;6.50;5.25;;;;;22.57;49.23;102034.44;5061007;28;45237;-57
2022/07/11 05:55:31;;;;;;;;;4.75;4.75;;;;;22.65;49.12;102033.75;5087209;27;45416;-57
2022/07/11 05:57:56;;;;;;;;;5.00;4.75;;;;;22.68;49.02;102033.50;5073333;28;45438;-53
2022/07/11 06:00:22;;;;;;;;;5.50;5.00;;;;;22.70;49.04;102032.38;5070314;28;45266;-58
2022/07/11 06:02:49;;;;;;;;;5.50;5.00;;;;;22.77;48.77;102029.97;5060654;28;46072;-57
2022/07/11 06:05:14;;;;;;;;;2.50;2.00;;;;;22.81;48.92;102037.59;5060726;28;45265;-60
2022/07/11 06:10:24;;;;;;;;;4.75;4.00;;;;;22.90;48.61;102033.25;5065129;28;45457;-58
2022/07/11 06:12:49;;;;;;;;;5.25;4.25;;;;;22.96;48.62;102040.75;5065832;28;45329;-58
2022/07/11 06:15:15;;;;;;;;;5.00;5.00;;;;;22.99;48.76;102037.81;5069300;28;45208;-57
2022/07/11 06:17:40;;;;;;;;;7.25;4.75;;;;;23.03;48.54;102041.91;5082403;27;45293;-58
2022/07/11 06:20:07;;;;;;;;;7.00;4.00;;;;;23.08;48.22;102038.81;5069686;28;45257;-57
2022/07/11 06:22:33;;;;;;;;;5.75;5.75;;;;;23.15;48.55;102047.16;5071545;28;46543;-59
2022/07/11 06:24:58;;;;;;;;;6.25;5.25;;;;;23.22;48.35;102045.59;5066469;27;45397;-59
2022/07/11 06:27:24;;;;;;;;;5.75;4.25;;;;;23.31;48.22;102040.22;5074273;27;45349;-59
2022/07/11 06:29:49;;;;;;;;;6.00;4.00;;;;;23.40;48.23;102044.75;5070275;28;45497;-58
2022/07/11 06:32:14;;;;;;;;;4.50;4.50;;;;;23.48;48.65;102049.41;5067327;28;45912;-59
2022/07/11 06:34:40;;;;;;;;;5.25;5.00;;;;;23.56;48.35;102036.09;5069832;28;45326;-58
2022/07/11 06:37:05;;;;;;;;;7.25;5.00;;;;;23.63;48.46;102034.56;5069759;27;45643;-71
2022/07/11 06:39:31;;;;;;;;;6.25;4.25;;;;;23.70;48.22;102032.16;5065815;27;45351;-74
2022/07/11 06:41:56;;;;;;;;;5.50;5.00;;;;;23.78;47.92;102026.88;5069482;27;45313;-73
2022/07/11 06:44:22;;;;;;;;;4.00;4.00;;;;;23.85;47.53;102033.34;5060520;28;45366;-72
2022/07/11 06:46:48;;;;;;;;;5.75;4.75;;;;;23.92;47.51;102029.09;5062930;27;45606;-71
2022/07/11 06:49:14;;;;;;;;;8.75;5.00;;;;;24.00;47.84;102027.50;5063746;28;45319;-71
2022/07/11 06:51:39;;;;;;;;;5.00;4.00;;;;;24.07;47.71;102026.78;5064964;28;46215;-70
2022/07/11 06:54:05;;;;;;;;;4.50;3.25;;;;;24.14;47.20;102032.41;5072755;27;45317;-71
2022/07/11 06:56:31;;;;;;;;;6.00;6.00;;;;;24.22;47.06;102027.13;5064918;28;45328;-71
2022/07/11 06:58:57;;;;;;;;;4.00;3.25;;;;;24.28;47.02;102031.09;5073617;28;45705;-70
2022/07/11 07:01:22;;;;;;;;;9.00;5.00;;;;;24.31;47.10;102031.63;5073971;28;45303;-71
2022/07/11 07:03:48;;;;;;;;;3.75;3.00;;;;;24.33;46.66;102032.38;5077355;27;45477;-71
2022/07/11 07:06:13;;;;;;;;;5.25;3.00;;;;;24.39;46.87;102030.91;5075129;27;45500;-72
2022/07/11 07:08:39;;;;;;;;;3.00;3.00;;;;;24.44;46.69;102032.16;5078227;28;45278;-73
2022/07/11 07:11:05;;;;;;;;;3.00;3.00;;;;;24.51;46.56;102035.13;5065524;27;45394;-71
2022/07/11 07:13:30;;;;;;;;;5.00;4.00;;;;;24.59;46.03;102028.97;5078268;27;45228;-72
2022/07/11 07:15:57;;;;;;;;;5.75;3.25;;;;;24.63;45.88;102036.59;5068605;28;45362;-70
2022/07/11 07:18:24;;;;;;;;;3.00;3.00;;;;;24.67;45.82;102031.75;5074403;27;45473;-72
2022/07/11 07:20:49;;;;;;;;;4.50;3.00;;;;;24.69;45.94;102043.22;5071273;28;46175;-70
2022/07/11 07:23:16;;;;;;;;;4.00;3.75;;;;;24.69;45.82;102043.22;5076860;28;45238;-69
2022/07/11 07:25:42;;;;;;;;;5.50;4.00;;;;;24.70;45.58;102037.69;5071471;27;45325;-71
2022/07/11 07:28:07;;;;;;;;;3.00;2.75;;;;;24.70;45.75;102032.28;5072886;28;45497;-70
2022/07/11 07:30:33;;;;;;;;;3.00;3.00;;;;;24.73;45.44;102040.09;5072347;28;45543;-69
2022/07/11 07:33:00;;;;;;;;;3.75;2.75;;;;;24.76;45.08;102038.94;5068525;28;45374;-70
2022/07/11 07:35:26;;;;;;;;;3.00;2.75;;;;;24.74;45.15;102039.09;5072153;28;45278;-70
2022/07/11 07:37:51;;;;;;;;;3.00;2.25;;;;;24.74;44.79;102041.78;5067951;27;45418;-71
2022/07/11 07:40:17;;;;;;;;;6.00;4.50;;;;;24.76;44.72;102033.53;5070163;28;46344;-72
2022/07/11 07:42:42;;;;;;;;;4.25;2.25;;;;;24.82;44.80;102045.56;5068956;28;45375;-70
2022/07/11 07:45:08;;;;;;;;;2.00;2.00;;;;;24.82;45.17;102041.03;5070545;28;45608;-71
2022/07/11 07:47:35;;;;;;;;;3.25;3.25;;;;;24.85;44.47;102039.84;5069322;27;45325;-69
2022/07/11 07:50:01;;;;;;;;;4.00;4.00;;;;;24.86;44.77;102046.94;5068383;27;45414;-70
2022/07/11 07:52:27;;;;;;;;;3.25;2.75;;;;;24.86;44.41;102038.84;5066467;27;45407;-70
2022/07/11 07:54:52;;;;;;;;;2.00;1.75;;;;;24.86;44.48;102044.25;5069044;28;45426;-71
2022/07/11 07:57:18;;;;;;;;;3.75;3.00;;;;;24.87;44.72;102041.38;5072433;27;45552;-69
2022/07/11 07:59:43;;;;;;;;;5.00;3.00;;;;;24.90;44.41;102035.72;5072561;27;46384;-69
2022/07/11 08:02:09;;;;;;;;;3.50;2.75;;;;;24.94;44.02;102045.19;5072331;28;45429;-69
2022/07/11 08:04:34;;;;;;;;;2.75;2.00;;;;;24.96;44.34;102037.81;5072253;28;45412;-69
2022/07/11 08:07:00;;;;;;;;;2.50;2.00;;;;;24.99;43.87;102050.13;5072116;27;45547;-70
2022/07/11 08:09:26;;;;;;;;;4.00;3.00;;;;;25.00;44.33;102041.03;5072411;27;45726;-62
2022/07/11 08:11:51;;;;;;;;;2.00;2.00;;;;;25.01;43.84;102043.56;5067991;27;45516;-62
2022/07/11 08:14:17;;;;;;;;;3.75;3.75;;;;;25.02;43.73;102042.56;5072573;27;45387;-65
2022/07/11 08:16:43;;;;;;;;;4.00;4.00;;;;;25.06;43.89;102040.44;5073184;27;45239;-61
2022/07/11 08:19:09;;;;;;;;;2.25;2.25;;;;;25.11;44.25;102031.88;5069361;27;46016;-65
2022/07/11 08:21:35;;;;;;;;;2.00;2.00;;;;;25.15;43.91;102034.13;5077033;27;45265;-67
2022/07/11 08:24:01;;;;;;;;;4.00;3.00;;;;;25.20;44.21;102029.13;5071125;27;45418;-66
2022/07/11 08:26:27;;;;;;;;;2.00;2.00;;;;;25.22;43.85;102027.13;5071866;27;45255;-65
2022/07/11 08:28:53;;;;;;;;;5.25;3.25;;;;;25.26;43.48;102019.56;5069653;27;45451;-67
2022/07/11 08:31:19;;;;;;;;;3.75;3.75;;;;;25.27;43.56;102023.94;5069731;27;45298;-67
2022/07/11 08:33:45;;;;;;;;;4.75;3.00;;;;;25.22;43.69;102004.69;5070406;28;45647;-67
2022/07/11 08:36:11;;;;;;;;;2.25;2.25;;;;;25.26;43.70;102004.22;5071654;27;45569;-66
2022/07/11 08:38:39;;;;;;;;;8.50;4.25;;;;;25.33;43.81;102004.44;5070527;28;45512;-66
2022/07/11 08:41:05;;;;;;;;;5.50;3.50;;;;;25.39;43.34;101995.72;5069992;27;45322;-67
2022/07/11 08:43:31;;;;;;;;;3.00;3.00;;;;;25.43;43.28;101998.94;5069998;27;45388;-67
2022/07/11 08:45:58;;;;;;;;;4.75;2.75;;;;;25.41;43.45;101995.56;5071303;28;45586;-65
2022/07/11 08:48:24;;;;;;;;;5.25;4.00;;;;;25.45;43.08;101995.09;5070409;27;45433;-67
2022/07/11 08:50:51;;;;;;;;;4.25;3.50;;;;;25.51;43.27;101996.31;5072979;27;45450;-67
2022/07/11 08:53:17;;;;;;;;;3.00;3.00;;;;;25.53;42.90;101994.31;5069379;27;45404;-68
2022/07/11 08:55:43;;;;;;;;;6.75;6.75;;;;;25.53;43.19;101995.16;5073807;27;45429;-67
2022/07/11 08:58:09;;;;;;;;;3.75;2.00;;;;;25.55;42.93;101995.00;5068375;27;46033;-70
2022/07/11 09:00:36;;;;;;;;;3.50;3.25;;;;;25.53;42.99;101997.84;5065903;27;45508;-50
2022/07/11 09:03:03;;;;;;;;;5.00;3.25;;;;;25.52;43.21;101995.31;5070165;27;45255;-51
2022/07/11 09:05:30;;;;;;;;;2.25;2.25;;;;;25.54;43.22;101996.00;5067089;28;45513;-49
2022/07/11 09:07:56;;;;;;;;;7.00;3.50;;;;;25.57;43.34;101992.97;5071268;27;45258;-51
2022/07/11 09:10:21;;;;;;;;;2.00;2.00;;;;;25.57;42.98;101987.56;5078700;27;45227;-53
2022/07/11 09:13:04;;;;;;;;;7.50;4.00;;;;;25.59;43.33;101985.56;5069232;28;45341;-51
2022/07/11 09:15:40;;;;;;;;;4.75;2.75;;;;;25.60;43.36;101992.69;5070325;27;45464;-52
2022/07/11 09:18:25;;;;;;;;;6.00;5.00;;;;;25.67;43.23;101992.88;5065677;28;46318;-47
2022/07/11 09:26:48;;;;;;;;;1.75;1.75;;;;;25.86;43.19;101982.72;5073692;27;45590;-48
2022/07/11 09:29:16;;;;;;;;;11.25;7.50;;;;;25.87;43.05;101978.19;5069918;28;45778;-46
2022/07/11 09:31:47;;;;;;;;;5.25;2.00;;;;;25.91;42.70;101986.78;5068839;28;45232;-47
2022/07/11 09:34:14;;;;;;;;;4.75;2.00;;;;;25.90;42.90;101980.53;5070378;27;45367;-48
2022/07/11 09:36:50;;;;;;;;;3.25;2.00;;;;;25.92;42.76;101975.84;5072503;27;45379;-49
2022/07/11 09:39:21;;;;;;;;;2.50;2.00;;;;;25.97;42.37;101978.06;5071322;28;45425;-53
2022/07/11 09:41:48;;;;;;;;;1.00;1.00;;;;;25.98;42.50;101975.19;5070352;28;45481;-49
2022/07/11 09:44:19;;;;;;;;;2.00;2.00;;;;;26.00;42.33;101973.19;5071232;27;45432;-51
2022/07/11 09:46:48;;;;;;;;;2.50;2.00;;;;;26.03;42.60;101972.84;5069749;27;45441;-51
2022/07/11 09:49:15;;;;;;;;;2.25;2.25;;;;;26.05;42.21;101970.84;5074355;27;45387;-52
2022/07/11 09:51:41;;;;;;;;;2.00;2.00;;;;;26.09;42.45;101969.50;5073304;28;45323;-52
2022/07/11 09:54:08;;;;;;;;;2.25;1.00;;;;;26.17;42.33;101972.25;5069265;27;45410;-52
2022/07/11 09:56:45;;;;;;;;;2.00;2.00;;;;;26.29;42.41;101974.63;5071330;27;45674;-53
2022/07/11 09:59:12;;;;;;;;;2.50;2.50;;;;;26.37;42.21;101964.69;5071738;28;45520;-52
2022/07/11 10:01:39;;;;;;;;;5.00;2.75;;;;;26.46;42.30;101960.19;5073295;28;45384;-52
2022/07/11 10:04:09;;;;;;;;;2.25;2.25;;;;;26.51;41.91;101970.53;5067207;28;45473;-50
2022/07/11 10:06:36;;;;;;;;;3.00;2.25;;;;;26.56;42.03;101976.28;5069959;28;45433;-51
2022/07/11 10:09:04;;;;;;;;;0.00;0.00;;;;;26.57;42.05;101967.16;5070809;28;45582;-52
2022/07/11 10:11:31;;;;;;;;;2.00;2.00;;;;;26.58;41.68;101968.84;5067257;28;45433;-51
2022/07/11 10:14:00;;;;;;;;;2.00;2.00;;;;;26.62;41.88;101957.56;5064473;28;45510;-50
2022/07/11 10:17:14;;;;;;;;;4.00;2.25;;;;;26.69;41.56;101958.53;5065549;28;45401;-52
2022/07/11 10:19:50;;;;;;;;;2.75;2.00;;;;;26.73;41.18;101964.47;5065734;27;45413;-49
2022/07/11 10:22:42;;;;;;;;;2.00;2.00;;;;;26.78;41.58;101967.53;5068388;28;45708;-52
2022/07/11 10:25:28;;;;;;;;;2.25;1.00;;;;;26.83;41.28;101965.16;5068184;27;45407;-51
2022/07/11 10:28:07;;;;;;;;;1.75;1.75;;;;;26.87;40.90;101963.81;5064648;28;45410;-53
2022/07/11 10:30:49;;;;;;;;;3.75;2.00;;;;;26.92;41.21;101969.56;5070818;28;45432;-54
2022/07/11 10:33:16;;;;;;;;;1.50;1.50;;;;;26.96;41.30;101956.56;5068759;28;45348;-52
2022/07/11 10:35:47;;;;;;;;;2.75;2.75;;;;;26.97;40.88;101967.19;5070249;27;45258;-53
2022/07/11 10:38:14;;;;;;;;;4.75;3.50;;;;;26.96;40.90;101964.66;5071213;28;45438;-53
2022/07/11 10:40:50;;;;;;;;;3.25;2.00;;;;;27.03;40.96;101971.09;5068665;28;45449;-50
2022/07/11 10:43:40;;;;;;;;;3.00;1.75;;;;;27.13;40.96;101965.53;5069249;28;45787;-50
2022/07/11 10:46:18;;;;;;;;;2.25;0.75;;;;;27.14;40.43;101969.94;5068195;28;45229;-48
2022/07/11 10:49:17;;;;;;;;;2.00;1.50;;;;;27.08;40.05;101974.16;5067965;28;45536;-46
2022/07/11 10:52:02;;;;;;;;;1.25;1.00;;;;;27.11;39.90;101970.28;5070905;28;45266;-47
2022/07/11 10:54:56;;;;;;;;;1.50;1.50;;;;;27.12;40.13;101962.00;5067553;28;45353;-47
2022/07/11 10:57:31;;;;;;;;;3.50;2.00;;;;;27.20;40.19;101966.56;5069383;27;45394;-48
2022/07/11 10:59:58;;;;;;;;;2.00;2.00;;;;;27.26;40.06;101966.72;5070268;27;45349;-51
2022/07/11 11:02:24;;;;;;;;;1.75;1.75;;;;;27.32;39.93;101964.34;5070345;28;45364;-49
2022/07/11 11:04:52;;;;;;;;;3.75;3.75;;;;;27.39;39.81;101955.38;5068091;27;45417;-49
2022/07/11 11:07:51;;;;;;;;;1.50;1.50;;;;;27.46;39.31;101955.53;5067288;28;45535;-49
2022/07/11 11:10:29;;;;;;;;;3.50;3.00;;;;;27.55;39.64;101958.03;5043480;28;45412;-47
2022/07/11 11:13:07;;;;;;;;;17.25;11.50;;;;;27.60;39.17;101946.69;5066590;28;45603;-47
2022/07/11 11:15:49;;;;;;;;;4.00;3.50;;;;;27.60;39.35;101945.88;5065450;28;45495;-47
2022/07/11 11:18:26;;;;;;;;;1.25;1.25;;;;;27.62;39.07;101951.94;5068906;27;46329;-50
2022/07/11 11:23:47;;;;;;;;;1.75;1.75;;;;;27.68;39.08;101944.00;5066785;27;45419;-51
2022/07/11 11:26:20;;;;;;;;;1.00;1.00;;;;;27.74;39.28;101947.88;5068975;28;45617;-47
2022/07/11 11:28:57;;;;;;;;;3.00;2.00;;;;;27.79;38.84;101935.50;5070846;27;45349;-50
2022/07/11 11:31:24;;;;;;;;;2.00;2.00;;;;;27.84;38.80;101928.72;5063474;27;45663;-49
2022/07/11 11:33:50;;;;;;;;;1.50;1.50;;;;;27.90;39.10;101930.75;5067700;28;46429;-51
2022/07/11 11:36:17;;;;;;;;;3.00;1.00;;;;;27.91;38.89;101938.69;5070666;27;45274;-46
2022/07/11 11:38:45;;;;;;;;;2.00;0.25;;;;;27.88;38.21;101936.31;5069630;27;45348;-48